createdAt,value
2019-05-25T00:01:37.418Z,100014.36
2019-05-25T00:03:13.103Z,100016.59
2019-05-25T00:04:49.420Z,100008.79
2019-05-25T00:06:24.935Z,100010.18
2019-05-25T00:08:01.277Z,100011.07
2019-05-25T00:09:37.055Z,100012.70
2019-05-25T00:11:13.398Z,100012.70
2019-05-25T00:12:48.963Z,100007.71
2019-05-25T00:14:25.330Z,100002.14
2019-05-25T00:16:00.883Z,100008.79
2019-05-25T00:17:37.221Z,100004.61
2019-05-25T00:19:12.755Z,100006.85
2019-05-25T00:20:49.345Z,100006.27
2019-05-25T00:22:24.879Z,100003.48
2019-05-25T00:24:11.794Z,100004.30
2019-05-25T00:25:38.489Z,100001.78
2019-05-25T00:27:14.784Z,100009.02
2019-05-25T00:28:50.327Z,100002.05
2019-05-25T00:30:26.644Z,100000.38
2019-05-25T00:32:02.301Z,100003.44
2019-05-25T00:33:38.626Z,99997.02
2019-05-25T00:35:14.294Z,100000.66
2019-05-25T00:36:50.595Z,100002.05
2019-05-25T00:38:26.210Z,99997.29
2019-05-25T00:40:02.651Z,100005.64
2019-05-25T00:41:39.677Z,99998.13
2019-05-25T00:43:15.990Z,100000.08
2019-05-25T00:44:51.560Z,99995.08
2019-05-25T00:46:27.827Z,99993.69
2019-05-25T00:48:03.351Z,99997.86
2019-05-25T00:49:40.621Z,100000.66
2019-05-25T00:51:16.146Z,100002.36
2019-05-25T00:52:52.531Z,99998.22
2019-05-25T00:54:28.450Z,100000.74
2019-05-25T00:56:05.205Z,100000.21
2019-05-25T00:57:40.914Z,100005.55
2019-05-25T00:59:17.219Z,100005.55
2019-05-25T01:00:52.747Z,100007.22
2019-05-25T01:02:29.083Z,100010.00
2019-05-25T01:04:04.767Z,100008.11
2019-05-25T01:05:41.093Z,100011.44
2019-05-25T01:07:23.325Z,100009.81
2019-05-25T01:09:00.499Z,100013.15
2019-05-25T01:10:41.194Z,100014.27
2019-05-25T01:12:16.709Z,100021.00
2019-05-25T01:13:53.276Z,100025.73
2019-05-25T01:15:28.876Z,100021.55
2019-05-25T01:17:05.247Z,100020.73
2019-05-25T01:18:40.778Z,100024.06
2019-05-25T01:20:17.435Z,100024.64
2019-05-25T01:21:52.961Z,100025.00
2019-05-25T01:23:29.326Z,100022.48
2019-05-25T01:25:06.911Z,100025.31
2019-05-25T01:26:43.228Z,100025.03
2019-05-25T01:28:18.777Z,100024.22
2019-05-25T01:29:55.084Z,100025.34
2019-05-25T01:31:30.621Z,100024.27
2019-05-25T01:33:07.175Z,100022.61
2019-05-25T01:34:42.720Z,100024.04
2019-05-25T01:36:19.017Z,100024.59
2019-05-25T01:37:54.803Z,100026.02
2019-05-25T01:39:31.109Z,100024.94
2019-05-25T01:41:06.616Z,100025.25
2019-05-25T01:42:43.018Z,100021.38
2019-05-25T01:44:18.591Z,100024.47
2019-05-25T01:45:54.963Z,100021.94
2019-05-25T01:47:30.556Z,100022.24
2019-05-25T01:49:06.858Z,100018.95
2019-05-25T01:50:42.975Z,100020.63
2019-05-25T01:52:19.512Z,100016.76
2019-05-25T01:53:55.036Z,100025.41
2019-05-25T01:55:31.483Z,100022.41
2019-05-25T01:57:07.111Z,100029.12
2019-05-25T01:58:43.732Z,100026.08
2019-05-25T02:00:20.983Z,100033.89
2019-05-25T02:01:57.606Z,100027.81
2019-05-25T02:03:33.470Z,100030.87
2019-05-25T02:05:10.571Z,100030.09
2019-05-25T02:06:46.116Z,100032.34
2019-05-25T02:08:22.426Z,100031.83
2019-05-25T02:09:57.952Z,100033.53
2019-05-25T02:11:34.342Z,100035.23
2019-05-25T02:13:09.860Z,100027.16
2019-05-25T02:14:46.158Z,100024.41
2019-05-25T02:16:21.712Z,100029.16
2019-05-25T02:17:58.009Z,100028.62
2019-05-25T02:19:33.527Z,100033.09
2019-05-25T02:21:09.912Z,100035.34
2019-05-25T02:22:45.457Z,100031.70
2019-05-25T02:24:21.748Z,100038.39
2019-05-25T02:25:57.311Z,100030.36
2019-05-25T02:27:33.614Z,100031.75
2019-05-25T02:29:09.149Z,100027.30
2019-05-25T02:30:46.041Z,100037.61
2019-05-25T02:32:21.585Z,100034.26
2019-05-25T02:33:57.940Z,100028.45
2019-05-25T02:35:33.718Z,100032.32
2019-05-25T02:37:10.140Z,100032.87
2019-05-25T02:38:45.672Z,100035.92
2019-05-25T02:40:22.039Z,100033.14
2019-05-25T02:41:57.562Z,100034.22
2019-05-25T02:43:33.925Z,100038.97
2019-05-25T02:45:09.539Z,100033.67
2019-05-25T02:46:46.621Z,100028.38
2019-05-25T02:48:22.156Z,100031.98
2019-05-25T02:49:58.462Z,100033.64
2019-05-25T02:51:33.984Z,100035.30
2019-05-25T02:53:10.293Z,100033.91
2019-05-25T02:54:46.270Z,100032.21
2019-05-25T02:56:22.651Z,100035.81
2019-05-25T02:57:58.199Z,100035.50
2019-05-25T02:59:34.646Z,100041.92
2019-05-25T03:01:11.323Z,100041.34
2019-05-25T03:02:49.591Z,100038.55
2019-05-25T03:04:25.080Z,100043.00
2019-05-25T03:06:03.182Z,100043.81
2019-05-25T03:07:40.337Z,100043.27
2019-05-25T03:09:18.674Z,100047.45
2019-05-25T03:10:54.660Z,100049.08
2019-05-25T03:12:31.607Z,100057.19
2019-05-25T03:14:07.185Z,100058.30
2019-05-25T03:15:43.505Z,100058.30
2019-05-25T03:17:19.062Z,100056.34
2019-05-25T03:18:55.379Z,100056.09
2019-05-25T03:20:31.027Z,100059.43
2019-05-25T03:22:07.428Z,100057.77
2019-05-25T03:23:42.956Z,100058.07
2019-05-25T03:25:20.851Z,100060.89
2019-05-25T03:26:56.375Z,100066.19
2019-05-25T03:28:32.677Z,100057.59
2019-05-25T03:30:09.258Z,100066.49
2019-05-25T03:31:45.639Z,100060.66
2019-05-25T03:33:21.147Z,100061.81
2019-05-25T03:34:57.725Z,100065.13
2019-05-25T03:36:33.256Z,100067.37
2019-05-25T03:38:09.627Z,100068.22
2019-05-25T03:39:45.143Z,100072.97
2019-05-25T03:41:21.709Z,100071.58
2019-05-25T03:42:57.249Z,100073.78
2019-05-25T03:44:33.549Z,100069.07
2019-05-25T03:46:09.074Z,100074.09
2019-05-25T03:47:45.390Z,100074.94
2019-05-25T03:49:22.042Z,100082.74
2019-05-25T03:50:59.389Z,100078.57
2019-05-25T03:52:36.162Z,100076.33
2019-05-25T03:54:12.460Z,100080.23
2019-05-25T03:55:48.045Z,100078.84
2019-05-25T03:57:24.384Z,100083.02
2019-05-25T03:58:59.924Z,100082.20
2019-05-25T04:00:38.831Z,100081.63
2019-05-25T04:02:14.680Z,100082.74
2019-05-25T04:03:51.121Z,100078.53
2019-05-25T04:05:26.681Z,100079.35
2019-05-25T04:07:03.045Z,100080.44
2019-05-25T04:08:38.574Z,100082.64
2019-05-25T04:10:15.448Z,100087.33
2019-05-25T04:11:50.992Z,100087.59
2019-05-25T04:13:27.314Z,100088.95
2019-05-25T04:15:03.182Z,100090.31
2019-05-25T04:16:39.464Z,100090.55
2019-05-25T04:18:15.279Z,100090.52
2019-05-25T04:19:51.842Z,100096.28
2019-05-25T04:21:28.355Z,100095.13
2019-05-25T04:23:04.665Z,100096.48
2019-05-25T04:24:40.338Z,100103.41
2019-05-25T04:26:22.644Z,100102.82
2019-05-25T04:27:54.233Z,100107.77
2019-05-25T04:29:30.794Z,100113.00
2019-05-25T04:31:06.328Z,100104.06
2019-05-25T04:32:42.650Z,100104.30
2019-05-25T04:34:18.165Z,100105.11
2019-05-25T04:35:54.726Z,100108.39
2019-05-25T04:37:30.239Z,100111.41
2019-05-25T04:39:09.060Z,100112.45
2019-05-25T04:40:44.893Z,100116.33
2019-05-25T04:42:21.522Z,100115.44
2019-05-25T04:43:57.046Z,100125.11
2019-05-25T04:45:37.183Z,100118.09
2019-05-25T04:47:26.073Z,100118.87
2019-05-25T04:48:51.805Z,100113.27
2019-05-25T04:50:27.331Z,100115.16
2019-05-25T04:52:03.657Z,100116.73
2019-05-25T04:53:40.272Z,100119.20
2019-05-25T04:55:16.790Z,100119.98
2019-05-25T04:56:52.316Z,100114.31
2019-05-25T04:58:28.708Z,100120.07
2019-05-25T05:00:06.874Z,100120.27
2019-05-25T05:01:46.390Z,100120.48
2019-05-25T05:03:28.671Z,100122.88
2019-05-25T05:05:15.822Z,100125.84
2019-05-25T05:06:57.458Z,100126.81
2019-05-25T05:08:35.925Z,100126.08
2019-05-25T05:10:12.072Z,100119.09
2019-05-25T05:11:49.847Z,100127.74
2019-05-25T05:13:28.334Z,100123.80
2019-05-25T05:15:06.283Z,100129.88
2019-05-25T05:16:44.785Z,100127.34
2019-05-25T05:18:25.559Z,100132.62
2019-05-25T05:20:02.221Z,100141.78
2019-05-25T05:21:37.946Z,100146.44
2019-05-25T05:23:17.269Z,100139.08
2019-05-25T05:24:54.483Z,100139.20
2019-05-25T05:26:34.158Z,100137.12
2019-05-25T05:28:18.790Z,100137.17
2019-05-25T05:30:00.321Z,100134.52
2019-05-25T05:31:39.446Z,100134.09
2019-05-25T05:33:17.223Z,100140.73
2019-05-25T05:34:55.817Z,100149.31
2019-05-25T05:36:40.029Z,100148.28
2019-05-25T05:38:11.802Z,100149.70
2019-05-25T05:39:54.624Z,100145.87
2019-05-25T05:41:35.626Z,100146.69
2019-05-25T05:43:13.075Z,100153.16
2019-05-25T05:44:50.131Z,100155.38
2019-05-25T05:46:29.182Z,100157.59
2019-05-25T05:48:11.870Z,100159.45
2019-05-25T05:49:53.761Z,100163.40
2019-05-25T05:51:38.991Z,100154.19
2019-05-25T05:53:20.232Z,100155.25
2019-05-25T05:55:00.775Z,100160.80
2019-05-25T05:56:37.242Z,100160.72
2019-05-25T05:58:13.038Z,100154.41
2019-05-25T06:00:05.284Z,100156.63
2019-05-25T06:01:42.509Z,100161.64
2019-05-25T06:03:19.429Z,100155.81
2019-05-25T06:04:57.204Z,100157.33
2019-05-25T06:06:34.336Z,100161.83
2019-05-25T06:08:14.651Z,100161.30
2019-05-25T06:09:53.756Z,100162.41
2019-05-25T06:11:29.608Z,100163.62
2019-05-25T06:13:06.260Z,100168.37
2019-05-25T06:14:42.277Z,100172.84
2019-05-25T06:16:19.611Z,100175.77
2019-05-25T06:17:55.540Z,100165.81
2019-05-25T06:19:31.437Z,100170.05
2019-05-25T06:21:08.351Z,100176.84
2019-05-25T06:22:46.269Z,100170.64
2019-05-25T06:24:26.183Z,100169.59
2019-05-25T06:26:01.802Z,100175.56
2019-05-25T06:27:38.994Z,100177.30
2019-05-25T06:29:30.624Z,100176.56
2019-05-25T06:31:09.666Z,100179.61
2019-05-25T06:32:47.779Z,100170.17
2019-05-25T06:34:28.982Z,100179.09
2019-05-25T06:36:10.531Z,100173.20
2019-05-25T06:37:44.578Z,100171.20
2019-05-25T06:39:21.817Z,100167.28
2019-05-25T06:40:57.898Z,100176.91
2019-05-25T06:42:34.056Z,100174.56
2019-05-25T06:44:13.413Z,100176.78
2019-05-25T06:45:49.930Z,100177.02
2019-05-25T06:47:28.707Z,100179.34
2019-05-25T06:49:05.088Z,100179.22
2019-05-25T06:50:40.647Z,100176.37
2019-05-25T06:52:16.981Z,100182.80
2019-05-25T06:53:52.516Z,100189.47
2019-05-25T06:55:28.917Z,100192.83
2019-05-25T06:57:04.617Z,100193.65
2019-05-25T06:58:40.923Z,100196.58
2019-05-25T07:00:16.998Z,100197.72
2019-05-25T07:01:53.314Z,100201.33
2019-05-25T07:03:28.890Z,100204.11
2019-05-25T07:05:10.626Z,100205.12
2019-05-25T07:06:47.156Z,100205.39
2019-05-25T07:08:23.709Z,100206.86
2019-05-25T07:09:59.289Z,100208.06
2019-05-25T07:11:35.562Z,100212.95
2019-05-25T07:13:11.108Z,100215.02
2019-05-25T07:14:47.434Z,100210.42
2019-05-25T07:16:22.956Z,100213.66
2019-05-25T07:17:59.274Z,100214.27
2019-05-25T07:19:34.801Z,100211.16
2019-05-25T07:21:11.363Z,100206.39
2019-05-25T07:22:48.093Z,100212.00
2019-05-25T07:24:24.418Z,100208.91
2019-05-25T07:25:59.972Z,100215.97
2019-05-25T07:27:36.306Z,100221.19
2019-05-25T07:29:11.834Z,100217.31
2019-05-25T07:30:49.219Z,100218.66
2019-05-25T07:32:24.787Z,100219.78
2019-05-25T07:34:01.076Z,100219.02
2019-05-25T07:35:37.924Z,100218.30
2019-05-25T07:37:14.225Z,100222.23
2019-05-25T07:38:50.584Z,100225.34
2019-05-25T07:40:26.995Z,100220.45
2019-05-25T07:42:02.578Z,100225.81
2019-05-25T07:43:39.242Z,100232.23
2019-05-25T07:45:15.945Z,100226.84
2019-05-25T07:46:52.254Z,100226.91
2019-05-25T07:48:28.084Z,100227.80
2019-05-25T07:50:06.796Z,100225.11
2019-05-25T07:51:42.325Z,100224.19
2019-05-25T07:53:18.659Z,100233.03
2019-05-25T07:54:54.158Z,100227.73
2019-05-25T07:56:30.782Z,100229.73
2019-05-25T07:58:16.884Z,100233.45
2019-05-25T07:59:44.342Z,100230.87
2019-05-25T08:01:19.908Z,100236.84
2019-05-25T08:02:56.303Z,100239.52
2019-05-25T08:04:31.882Z,100245.64
2019-05-25T08:06:08.246Z,100241.42
2019-05-25T08:07:43.756Z,100246.54
2019-05-25T08:09:20.096Z,100249.28
2019-05-25T08:10:55.636Z,100240.22
2019-05-25T08:12:31.957Z,100244.83
2019-05-25T08:14:07.536Z,100245.98
2019-05-25T08:15:44.055Z,100244.91
2019-05-25T08:17:19.830Z,100248.06
2019-05-25T08:18:56.126Z,100248.65
2019-05-25T08:20:31.966Z,100238.27
2019-05-25T08:22:08.311Z,100243.69
2019-05-25T08:23:43.841Z,100248.25
2019-05-25T08:25:20.745Z,100251.00
2019-05-25T08:26:56.294Z,100250.09
2019-05-25T08:28:33.378Z,100248.77
2019-05-25T08:30:10.949Z,100249.78
2019-05-25T08:31:47.327Z,100250.26
2019-05-25T08:33:23.227Z,100254.50
2019-05-25T08:35:01.219Z,100250.61
2019-05-25T08:36:37.987Z,100249.54
2019-05-25T08:38:14.396Z,100249.76
2019-05-25T08:39:50.006Z,100254.57
2019-05-25T08:41:26.318Z,100250.49
2019-05-25T08:43:12.554Z,100259.61
2019-05-25T08:44:45.949Z,100255.59
2019-05-25T08:46:21.490Z,100257.13
2019-05-25T08:47:57.800Z,100259.45
2019-05-25T08:49:33.318Z,100263.14
2019-05-25T08:51:09.635Z,100263.68
2019-05-25T08:52:45.202Z,100260.59
2019-05-25T08:54:21.518Z,100258.58
2019-05-25T08:55:57.009Z,100252.97
2019-05-25T08:57:34.177Z,100261.03
2019-05-25T08:59:09.747Z,100265.70
2019-05-25T09:00:47.414Z,100259.98
2019-05-25T09:02:23.196Z,100263.95
2019-05-25T09:03:59.525Z,100264.46
2019-05-25T09:05:37.261Z,100262.84
2019-05-25T09:07:13.570Z,100264.94
2019-05-25T09:08:49.169Z,100265.11
2019-05-25T09:10:27.963Z,100264.20
2019-05-25T09:12:03.597Z,100267.39
2019-05-25T09:13:40.463Z,100258.16
2019-05-25T09:15:16.515Z,100258.97
2019-05-25T09:16:52.916Z,100266.28
2019-05-25T09:18:28.698Z,100264.25
2019-05-25T09:20:07.863Z,100266.51
2019-05-25T09:21:43.706Z,100263.95
2019-05-25T09:23:20.315Z,100258.20
2019-05-25T09:24:55.823Z,100259.95
2019-05-25T09:26:32.125Z,100270.94
2019-05-25T09:28:07.644Z,100256.52
2019-05-25T09:29:44.915Z,100259.23
2019-05-25T09:31:20.750Z,100261.91
2019-05-25T09:32:57.059Z,100254.30
2019-05-25T09:34:32.725Z,100264.33
2019-05-25T09:36:09.038Z,100266.30
2019-05-25T09:37:44.802Z,100262.08
2019-05-25T09:39:21.102Z,100257.45
2019-05-25T09:40:57.190Z,100261.64
2019-05-25T09:42:34.479Z,100261.64
2019-05-25T09:44:09.981Z,100260.61
2019-05-25T09:45:47.048Z,100259.64
2019-05-25T09:47:22.575Z,100255.47
2019-05-25T09:48:58.886Z,100260.28
2019-05-25T09:50:34.418Z,100252.46
2019-05-25T09:52:10.708Z,100252.48
2019-05-25T09:53:46.328Z,100253.56
2019-05-25T09:55:22.704Z,100255.74
2019-05-25T09:56:58.230Z,100256.50
2019-05-25T09:58:34.533Z,100254.22
2019-05-25T10:00:12.855Z,100256.59
2019-05-25T10:01:49.336Z,100259.94
2019-05-25T10:03:24.852Z,100258.39
2019-05-25T10:05:01.143Z,100258.26
2019-05-25T10:06:36.662Z,100256.70
2019-05-25T10:08:12.964Z,100260.26
2019-05-25T10:09:48.568Z,100260.93
2019-05-25T10:11:24.916Z,100262.83
2019-05-25T10:13:00.392Z,100260.43
2019-05-25T10:14:36.679Z,100259.23
2019-05-25T10:16:12.293Z,100258.79
2019-05-25T10:17:49.743Z,100251.64
2019-05-25T10:19:25.332Z,100243.80
2019-05-25T10:21:01.621Z,100254.23
2019-05-25T10:22:37.238Z,100254.61
2019-05-25T10:24:13.526Z,100249.45
2019-05-25T10:25:49.034Z,100252.36
2019-05-25T10:27:25.351Z,100249.55
2019-05-25T10:29:01.275Z,100252.83
2019-05-25T10:30:37.565Z,100247.84
2019-05-25T10:32:13.079Z,100247.56
2019-05-25T10:33:50.203Z,100250.97
2019-05-25T10:35:25.987Z,100242.17
2019-05-25T10:37:02.283Z,100244.97
2019-05-25T10:38:38.778Z,100244.38
2019-05-25T10:40:15.474Z,100237.52
2019-05-25T10:41:51.189Z,100238.59
2019-05-25T10:43:27.573Z,100235.02
2019-05-25T10:45:03.555Z,100238.34
2019-05-25T10:46:39.872Z,100242.80
2019-05-25T10:48:15.639Z,100246.25
2019-05-25T10:49:51.930Z,100239.09
2019-05-25T10:51:27.445Z,100241.66
2019-05-25T10:53:03.794Z,100235.64
2019-05-25T10:54:39.343Z,100230.81
2019-05-25T10:56:15.640Z,100235.11
2019-05-25T10:57:51.175Z,100236.06
2019-05-25T10:59:27.467Z,100232.53
2019-05-25T11:01:02.977Z,100230.64
2019-05-25T11:02:39.572Z,100234.95
2019-05-25T11:04:15.522Z,100230.80
2019-05-25T11:05:51.813Z,100225.46
2019-05-25T11:07:28.952Z,100229.02
2019-05-25T11:09:07.233Z,100228.90
2019-05-25T11:10:43.000Z,100226.16
2019-05-25T11:12:20.912Z,100228.52
2019-05-25T11:13:56.473Z,100221.95
2019-05-25T11:15:32.754Z,100217.27
2019-05-25T11:17:09.381Z,100217.82
2019-05-25T11:18:45.684Z,100218.95
2019-05-25T11:20:22.421Z,100214.63
2019-05-25T11:21:58.716Z,100222.95
2019-05-25T11:23:34.232Z,100218.41
2019-05-25T11:25:11.871Z,100209.44
2019-05-25T11:27:04.199Z,100213.53
2019-05-25T11:28:40.550Z,100208.86
2019-05-25T11:30:16.210Z,100210.83
2019-05-25T11:31:56.530Z,100217.23
2019-05-25T11:33:29.960Z,100208.47
2019-05-25T11:35:10.658Z,100207.75
2019-05-25T11:36:46.952Z,100205.14
2019-05-25T11:38:22.467Z,100208.44
2019-05-25T11:39:58.778Z,100204.96
2019-05-25T11:41:34.297Z,100205.70
2019-05-25T11:43:11.747Z,100206.69
2019-05-25T11:44:47.289Z,100205.92
2019-05-25T11:46:23.575Z,100211.44
2019-05-25T11:47:59.095Z,100211.44
2019-05-25T11:49:35.494Z,100201.97
2019-05-25T11:51:11.074Z,100202.84
2019-05-25T11:52:47.425Z,100199.53
2019-05-25T11:54:22.993Z,100208.08
2019-05-25T11:55:59.278Z,100209.23
2019-05-25T11:57:34.795Z,100205.88
2019-05-25T11:59:11.106Z,100199.33
2019-05-25T12:00:46.619Z,100203.42
2019-05-25T12:02:22.923Z,100210.27
2019-05-25T12:03:58.447Z,100206.53
2019-05-25T12:05:34.756Z,100202.28
2019-05-25T12:07:10.262Z,100201.76
2019-05-25T12:08:46.545Z,100207.75
2019-05-25T12:10:22.458Z,100205.68
2019-05-25T12:11:59.020Z,100209.55
2019-05-25T12:13:34.529Z,100207.05
2019-05-25T12:15:12.186Z,100209.05
2019-05-25T12:16:47.708Z,100204.64
2019-05-25T12:18:24.003Z,100203.77
2019-05-25T12:19:59.526Z,100205.63
2019-05-25T12:21:36.260Z,100211.13
2019-05-25T12:23:14.345Z,100214.20
2019-05-25T12:24:50.227Z,100210.64
2019-05-25T12:26:26.005Z,100210.80
2019-05-25T12:28:02.363Z,100211.60
2019-05-25T12:29:38.253Z,100210.63
2019-05-25T12:31:14.630Z,100206.83
2019-05-25T12:32:50.175Z,100206.48
2019-05-25T12:34:26.545Z,100208.08
2019-05-25T12:36:02.278Z,100206.87
2019-05-25T12:37:38.572Z,100205.07
2019-05-25T12:39:14.096Z,100202.96
2019-05-25T12:40:53.586Z,100207.73
2019-05-25T12:42:27.852Z,100204.48
2019-05-25T12:44:05.934Z,100209.13
2019-05-25T12:45:42.290Z,100208.25
2019-05-25T12:47:18.731Z,100205.95
2019-05-25T12:48:54.241Z,100204.61
2019-05-25T12:50:30.543Z,100202.78
2019-05-25T12:52:06.109Z,100202.31
2019-05-25T12:53:42.429Z,100204.69
2019-05-25T12:55:18.103Z,100202.87
2019-05-25T12:56:55.693Z,100203.34
2019-05-25T12:58:31.323Z,100197.38
2019-05-25T13:00:16.908Z,100203.03
2019-05-25T13:01:46.509Z,100200.70
2019-05-25T13:03:22.813Z,100204.09
2019-05-25T13:04:58.377Z,100202.45
2019-05-25T13:06:34.669Z,100201.75
2019-05-25T13:08:10.181Z,100201.93
2019-05-25T13:09:46.854Z,100200.36
2019-05-25T13:11:22.365Z,100200.26
2019-05-25T13:13:01.890Z,100199.53
2019-05-25T13:14:35.921Z,100199.05
2019-05-25T13:16:12.283Z,100200.91
2019-05-25T13:17:47.837Z,100200.94
2019-05-25T13:19:24.135Z,100197.69
2019-05-25T13:20:59.654Z,100196.30
2019-05-25T13:22:36.031Z,100186.13
2019-05-25T13:24:11.570Z,100188.75
2019-05-25T13:25:47.837Z,100186.15
2019-05-25T13:27:23.349Z,100185.34
2019-05-25T13:28:59.638Z,100178.66
2019-05-25T13:30:35.165Z,100187.82
2019-05-25T13:32:12.438Z,100189.03
2019-05-25T13:33:47.957Z,100183.92
2019-05-25T13:35:25.479Z,100184.48
2019-05-25T13:37:02.066Z,100184.88
2019-05-25T13:38:39.466Z,100185.07
2019-05-25T13:40:15.546Z,100185.97
2019-05-25T13:41:51.854Z,100187.64
2019-05-25T13:43:27.735Z,100190.95
2019-05-25T13:45:04.193Z,100179.38
2019-05-25T13:46:39.706Z,100189.02
2019-05-25T13:48:17.707Z,100184.78
2019-05-25T13:49:53.259Z,100179.86
2019-05-25T13:51:29.572Z,100176.94
2019-05-25T13:53:05.094Z,100186.81
2019-05-25T13:54:42.359Z,100182.81
2019-05-25T13:56:17.895Z,100183.14
2019-05-25T13:57:54.204Z,100187.14
2019-05-25T13:59:29.728Z,100184.56
2019-05-25T14:01:06.320Z,100188.42
2019-05-25T14:02:41.832Z,100184.61
2019-05-25T14:04:18.380Z,100178.97
2019-05-25T14:05:53.911Z,100185.73
2019-05-25T14:07:30.213Z,100189.34
2019-05-25T14:09:07.756Z,100189.37
2019-05-25T14:10:44.089Z,100195.22
2019-05-25T14:12:19.670Z,100190.91
2019-05-25T14:13:56.932Z,100192.65
2019-05-25T14:15:32.583Z,100193.95
2019-05-25T14:17:08.870Z,100199.15
2019-05-25T14:18:44.460Z,100188.33
2019-05-25T14:20:30.967Z,100192.63
2019-05-25T14:22:07.368Z,100190.35
2019-05-25T14:23:43.301Z,100191.02
2019-05-25T14:25:19.856Z,100193.18
2019-05-25T14:26:55.416Z,100188.72
2019-05-25T14:28:31.743Z,100187.02
2019-05-25T14:30:08.854Z,100184.34
2019-05-25T14:31:46.305Z,100182.31
2019-05-25T14:33:25.082Z,100175.77
2019-05-25T14:35:02.760Z,100172.38
2019-05-25T14:36:39.333Z,100173.88
2019-05-25T14:38:15.471Z,100178.31
2019-05-25T14:39:51.084Z,100187.83
2019-05-25T14:41:27.382Z,100184.91
2019-05-25T14:43:02.882Z,100180.86
2019-05-25T14:44:39.187Z,100181.27
2019-05-25T14:46:27.546Z,100174.98
2019-05-25T14:47:54.242Z,100178.69
2019-05-25T14:49:30.591Z,100176.36
2019-05-25T14:51:06.964Z,100179.90
2019-05-25T14:52:43.519Z,100179.09
2019-05-25T14:54:20.340Z,100179.56
2019-05-25T14:55:56.364Z,100183.87
2019-05-25T14:57:32.978Z,100175.95
2019-05-25T14:59:08.454Z,100178.28
2019-05-25T15:00:44.918Z,100185.30
2019-05-25T15:02:20.502Z,100181.50
2019-05-25T15:03:56.845Z,100175.28
2019-05-25T15:05:32.343Z,100175.71
2019-05-25T15:07:08.750Z,100175.34
2019-05-25T15:08:44.536Z,100172.75
2019-05-25T15:10:21.104Z,100175.28
2019-05-25T15:11:57.048Z,100171.08
2019-05-25T15:13:33.603Z,100168.05
2019-05-25T15:15:10.212Z,100172.56
2019-05-25T15:16:48.018Z,100178.28
2019-05-25T15:18:23.521Z,100175.26
2019-05-25T15:20:00.087Z,100173.88
2019-05-25T15:21:35.771Z,100170.84
2019-05-25T15:23:12.115Z,100173.70
2019-05-25T15:24:47.646Z,100172.92
2019-05-25T15:26:25.026Z,100168.94
2019-05-25T15:28:00.813Z,100168.60
2019-05-25T15:29:37.354Z,100175.71
2019-05-25T15:31:12.911Z,100170.77
2019-05-25T15:32:49.210Z,100169.37
2019-05-25T15:34:25.250Z,100164.36
2019-05-25T15:36:01.567Z,100171.66
2019-05-25T15:37:37.084Z,100173.69
2019-05-25T15:39:13.386Z,100170.41
2019-05-25T15:40:48.900Z,100173.00
2019-05-25T15:42:25.208Z,100170.11
2019-05-25T15:44:01.050Z,100171.29
2019-05-25T15:45:37.345Z,100158.52
2019-05-25T15:47:13.052Z,100158.28
2019-05-25T15:48:49.360Z,100160.90
2019-05-25T15:50:27.689Z,100160.09
2019-05-25T15:52:04.464Z,100158.17
2019-05-25T15:53:39.996Z,100150.91
2019-05-25T15:55:16.474Z,100156.78
2019-05-25T15:56:51.996Z,100157.94
2019-05-25T15:58:28.321Z,100159.94
2019-05-25T16:00:09.661Z,100160.89
2019-05-25T16:01:45.958Z,100163.21
2019-05-25T16:03:22.054Z,100164.95
2019-05-25T16:04:58.364Z,100160.16
2019-05-25T16:06:34.154Z,100161.33
2019-05-25T16:08:10.490Z,100165.86
2019-05-25T16:09:46.010Z,100162.77
2019-05-25T16:11:22.293Z,100168.98
2019-05-25T16:12:57.820Z,100159.94
2019-05-25T16:14:34.235Z,100154.53
2019-05-25T16:16:09.783Z,100160.62
2019-05-25T16:17:46.136Z,100150.28
2019-05-25T16:19:28.159Z,100149.23
2019-05-25T16:21:09.339Z,100150.98
2019-05-25T16:27:44.478Z,100151.52
2019-05-25T16:29:19.814Z,100150.55
2019-05-25T16:30:59.946Z,100154.27
2019-05-25T16:33:07.023Z,100154.97
2019-05-25T16:35:28.319Z,100151.28
2019-05-25T16:37:00.246Z,100153.39
2019-05-25T16:38:38.280Z,100156.06
2019-05-25T16:40:16.541Z,100158.38
2019-05-25T16:42:31.296Z,100152.27
2019-05-25T16:44:06.810Z,100154.36
2019-05-25T16:45:43.149Z,100155.16
2019-05-25T16:47:18.676Z,100158.89
2019-05-25T16:48:55.020Z,100160.74
2019-05-25T16:50:30.548Z,100157.22
2019-05-25T16:54:18.604Z,100164.16
2019-05-25T16:56:00.870Z,100164.80
2019-05-25T16:57:40.276Z,100161.12
2019-05-25T16:59:29.098Z,100165.28
2019-05-25T17:01:07.028Z,100160.42
2019-05-25T17:02:47.783Z,100161.77
2019-05-25T17:04:48.095Z,100164.42
2019-05-25T17:06:27.174Z,100168.27
2019-05-25T17:08:59.429Z,100172.07
2019-05-25T17:10:42.095Z,100168.30
2019-05-25T17:12:18.434Z,100168.41
2019-05-25T17:13:56.107Z,100170.25
2019-05-25T17:33:17.929Z,100169.45
2019-05-25T17:34:54.235Z,100175.56
2019-05-25T17:36:29.773Z,100179.86
2019-05-25T17:38:06.309Z,100178.97
2019-05-25T17:39:41.830Z,100181.52
2019-05-25T17:41:18.420Z,100184.91
2019-05-25T17:42:53.947Z,100183.00
2019-05-25T17:44:30.278Z,100180.79
2019-05-25T17:46:05.862Z,100184.74
2019-05-25T17:47:42.193Z,100194.31
2019-05-25T17:49:17.742Z,100192.09
2019-05-25T17:50:54.042Z,100189.84
2019-05-25T17:52:29.588Z,100188.19
2019-05-25T17:54:06.217Z,100186.57
2019-05-25T17:55:42.792Z,100189.37
2019-05-25T17:57:19.209Z,100185.47
2019-05-25T17:58:54.700Z,100181.85
2019-05-25T18:00:41.779Z,100188.61
2019-05-25T18:02:18.108Z,100184.41
2019-05-25T18:04:06.556Z,100191.75
2019-05-25T18:05:31.704Z,100185.64
2019-05-25T18:07:07.245Z,100188.44
2019-05-25T18:08:43.552Z,100183.68
2019-05-25T18:10:19.202Z,100188.70
2019-05-25T18:11:55.520Z,100185.08
2019-05-25T18:13:31.057Z,100185.97
2019-05-25T18:15:10.452Z,100184.02
2019-05-25T18:16:45.967Z,100190.18
2019-05-25T18:18:22.407Z,100190.27
2019-05-25T18:19:57.952Z,100190.04
2019-05-25T18:21:34.287Z,100187.32
2019-05-25T18:23:10.584Z,100193.01
2019-05-25T18:24:46.943Z,100196.70
2019-05-25T18:26:22.434Z,100195.39
2019-05-25T18:27:58.743Z,100193.81
2019-05-25T18:29:34.354Z,100196.70
2019-05-25T18:31:11.987Z,100202.72
2019-05-25T18:32:47.502Z,100203.61
2019-05-25T18:34:24.272Z,100205.73
2019-05-25T18:36:00.150Z,100210.59
2019-05-25T18:37:36.479Z,100204.56
2019-05-25T18:39:11.978Z,100205.78
2019-05-25T18:40:48.466Z,100202.50
2019-05-25T18:42:29.490Z,100203.98
2019-05-25T18:44:03.868Z,100204.39
2019-05-25T18:45:39.704Z,100206.68
2019-05-25T18:47:16.006Z,100202.88
2019-05-25T18:48:51.920Z,100203.55
2019-05-25T18:50:28.554Z,100205.58
2019-05-25T18:52:04.077Z,100207.39